Burgos, Spain

5:37 PM CET en Febrero 08, 2016 (GMT +0100)
Illera | | Change Station
CLOSE
Current Station
Estación meteorológica personal
Location: Burgos, CASTILLA Y LE�N
Altura: 2851 ft
Estaciones meteorológicas cercanas

Alt 2851 ft 42.35 °N, 3.69 °W | Updated 1 second ago

Scattered Clouds
Nubes dispersas
48.2 ° F
Sensación térmica 45 ° F
N
6.9
Viento Variable Viento desde SSE
Gusts 6.9 mph

Hoy
Alta -- | Baja -- ° F
--% Posibilidad de precipitaciones
Ayer
Alta -- | Baja -- ° F
Precip. -- pul
Presión 30.12 pul
Visibilidad 6.2 Millas
Nubes Nubes dispersas 3500 ft
Vientos helados 45 ° F
Punto de rocío 47 ° F
Humedad 96%
Precipitaciones 0.00 pul
Espesor de la nieve No disponible.
8:21 AM 6:36 PM
Luna nueva, 0% visible
METAR LEVT 081630Z 21007G17KT 120V280 9999 SCT035 13/08 Q1020
Presión 30.12 pul
Visibilidad 6.2 Millas
Nubes Nubes dispersas 3500 ft
Vientos helados 45 ° F
Punto de rocío 47 ° F
Humedad 96%
Precipitaciones 0.00 pul
Espesor de la nieve No disponible.
8:21 AM 6:36 PM
Luna nueva, 0% visible
METAR LEVT 081630Z 21007G17KT 120V280 9999 SCT035 13/08 Q1020

10-Day Weather Forecast

Almanac

Astronomía

Feb. 08, 2016 Salida Puesta
Hora real
Crepúsculo civil
Crepúsculo náutico
Crepúsculo astronómico
Luna
Horas de luz
Horas de luz
Tomorrow will be .
, % of the Moon is Illuminated

Extremos de hoy

Máximos del país Bajas del país

Community

WunderPhotos

Upload Photos

1,891,461 ¡fotos cargadas!

WunderBlog® & News

Nearby

Calidad del aire

  Calidad del aire Índice AQ Contaminante
Not available.

Grosos de nieve

Estación Profundido Altura

Actividad de terremotos

Ciudad Distance Mag. Tiempo y dato
Magnitud mínima muestra es 2,5.

Temperaturas de aguas costeras

Lugar Temperatura

Stations

Estaciones meteorológicas cercanas

Ubicación de la estación Temp. Vientos helados Punto de rocío Humedad Viento Precip. Alt Actualizado Tipo